»·PEaware :: N172AA L88-KSBP

N172AA :: L88-KSBP

FLIGHT INFORMATION

Flight Status: Arrived
Operator: Privately registered:
United States
More flights under this callsign
Pilot: Matthew B. (17532)
Aircraft: CESSNA 172 SKYHAWK
(C172)
More flights by this aircraft type
Origin: L88 New Cuyama
United States
Destination: KSBP San Luis Co Regl
United States
More flights between these airports :: More routes between these airports
Route: +
File this flight plan on PilotEdge
Remarks:
Altitude:
(Current/Filed)
6,500ft
Speed:
(Current/Filed)
90kts
Departed: 06-Jan-18 03:39 PM
Arrived: 06-Jan-18 05:01 PM
Distance/Time
Traveled:
50nm/1:21
Distance/Time
To Go:
Arrived

Flight Plot

Page will automatically refresh every two minutes.


Map Options




Map Legend


Flown Route
Filed Route
Departure Airport
Arrival Airport
Navaid (VOR, NDB)
Fix

Horizontal Profiles

Position Reports

Time Latitude Longitude Heading Altitude Ground
Speed
06-Jan-18 15:25 34.942856 -119.690285 204 2156ft 0kts
06-Jan-18 15:26 34.942856 -119.690285 204 2156ft 0kts
06-Jan-18 15:27 34.942856 -119.690285 204 2156ft 0kts
06-Jan-18 15:28 34.942821 -119.690299 188 2156ft 1kts
06-Jan-18 15:29 34.942604 -119.690160 288 2157ft 5kts
06-Jan-18 15:30 34.942616 -119.691080 177 2155ft 2kts
06-Jan-18 15:31 34.942040 -119.690633 122 2157ft 5kts
06-Jan-18 15:32 34.941596 -119.689632 116 2160ft 7kts
06-Jan-18 15:33 34.941104 -119.688437 117 2164ft 7kts
06-Jan-18 15:34 34.940694 -119.687378 115 2168ft 5kts
06-Jan-18 15:35 34.940372 -119.686546 115 2172ft 4kts
06-Jan-18 15:36 34.940112 -119.685886 115 2175ft 4kts
06-Jan-18 15:37 34.939803 -119.685127 119 2179ft 5kts
06-Jan-18 15:38 34.939328 -119.684022 115 2184ft 7kts
06-Jan-18 15:39 34.938758 -119.682577 117 2189ft 10kts
06-Jan-18 15:40 34.938004 -119.680787 116 2196ft 9kts
06-Jan-18 15:41 34.937770 -119.680242 125 2199ft 4kts
06-Jan-18 15:42 34.937717 -119.680089 283 2200ft 6kts
06-Jan-18 15:43 34.937830 -119.680702 289 2197ft 0kts
06-Jan-18 15:44 34.938054 -119.681042 293 2195ft 12kts
06-Jan-18 15:45 34.940906 -119.687214 303 2318ft 55kts
06-Jan-18 15:46 34.945659 -119.695486 302 2417ft 78kts
06-Jan-18 15:47 34.950508 -119.703412 310 2735ft 57kts
06-Jan-18 15:48 34.955179 -119.711148 308 2978ft 56kts
06-Jan-18 15:49 34.960471 -119.717832 315 3217ft 52kts
06-Jan-18 15:50 34.965276 -119.724654 304 3437ft 55kts
06-Jan-18 15:51 34.969321 -119.732040 300 3661ft 54kts
06-Jan-18 15:52 34.973124 -119.739590 300 3871ft 54kts
06-Jan-18 15:53 34.979024 -119.749437 317 3915ft 91kts
06-Jan-18 15:54 34.986531 -119.759805 304 4473ft 80kts
06-Jan-18 15:55 34.992989 -119.770789 307 4890ft 83kts
06-Jan-18 15:56 35.000067 -119.782432 303 5296ft 86kts
06-Jan-18 15:57 35.006747 -119.794485 306 5713ft 86kts
06-Jan-18 15:58 35.013865 -119.806286 302 6127ft 83kts
06-Jan-18 15:59 35.020327 -119.816561 313 6222ft 83kts
06-Jan-18 16:00 35.025622 -119.827779 291 6314ft 81kts
06-Jan-18 16:01 35.029231 -119.839734 285 6342ft 82kts
06-Jan-18 16:02 35.031555 -119.852128 283 6353ft 85kts
06-Jan-18 16:03 35.034265 -119.863802 287 6382ft 85kts
06-Jan-18 16:04 35.037546 -119.876501 286 6365ft 89kts
06-Jan-18 16:05 35.041518 -119.889256 292 6332ft 93kts
06-Jan-18 16:06 35.046273 -119.902396 294 6301ft 95kts
06-Jan-18 16:07 35.050991 -119.915742 291 6288ft 95kts
06-Jan-18 16:08 35.055641 -119.928814 292 6328ft 90kts
06-Jan-18 16:09 35.059706 -119.941822 286 6325ft 91kts
06-Jan-18 16:10 35.061914 -119.955744 272 6353ft 88kts
06-Jan-18 16:11 35.061312 -119.969945 260 6349ft 90kts
06-Jan-18 16:12 35.057802 -119.983676 255 6359ft 90kts
06-Jan-18 16:13 35.057291 -119.997398 272 6352ft 92kts
06-Jan-18 16:14 35.058395 -120.011481 277 6363ft 90kts
06-Jan-18 16:15 35.060151 -120.025224 279 6361ft 91kts
06-Jan-18 16:16 35.062071 -120.039055 280 6351ft 92kts
06-Jan-18 16:17 35.064528 -120.052805 285 6343ft 92kts
06-Jan-18 16:18 35.067973 -120.066419 289 6330ft 93kts
06-Jan-18 16:19 35.072919 -120.079221 300 6325ft 92kts
06-Jan-18 16:20 35.078781 -120.091210 299 6344ft 90kts
06-Jan-18 16:21 35.084183 -120.103645 285 6338ft 91kts
06-Jan-18 16:22 35.087408 -120.117282 286 6345ft 91kts
06-Jan-18 16:23 35.091085 -120.130643 289 6335ft 92kts
06-Jan-18 16:24 35.094913 -120.143979 290 6326ft 92kts
06-Jan-18 16:25 35.098413 -120.157396 287 6320ft 93kts
06-Jan-18 16:26 35.102221 -120.170329 292 6306ft 94kts
06-Jan-18 16:27 35.107316 -120.183346 294 6296ft 94kts
06-Jan-18 16:28 35.111782 -120.195616 293 6296ft 93kts
06-Jan-18 16:29 35.111782 -120.195616 293 6296ft 93kts
06-Jan-18 16:30 35.111782 -120.195616 293 6296ft 93kts
06-Jan-18 16:31 35.111782 -120.195616 293 6296ft 93kts
06-Jan-18 16:32 35.111782 -120.195616 293 6296ft 93kts
06-Jan-18 16:33 35.111782 -120.195616 293 6296ft 93kts
06-Jan-18 16:34 35.116870 -120.207862 308 6266ft 95kts
06-Jan-18 16:35 35.126391 -120.222598 305 6304ft 90kts
06-Jan-18 16:36 35.133877 -120.238040 295 6314ft 91kts
06-Jan-18 16:37 35.140187 -120.254785 291 6304ft 92kts
06-Jan-18 16:38 35.144934 -120.268656 293 6296ft 92kts
06-Jan-18 16:39 35.148994 -120.281197 289 6276ft 94kts
06-Jan-18 16:40 35.152794 -120.294560 288 6267ft 94kts
06-Jan-18 16:41 35.156225 -120.307913 286 6270ft 93kts
06-Jan-18 16:42 35.159692 -120.321564 288 6269ft 92kts
06-Jan-18 16:43 35.163296 -120.334644 289 6276ft 91kts
06-Jan-18 16:44 35.167265 -120.347383 290 6259ft 93kts
06-Jan-18 16:45 35.171592 -120.359647 294 6253ft 93kts
06-Jan-18 16:46 35.175263 -120.371862 280 6250ft 93kts
06-Jan-18 16:47 35.175862 -120.384901 275 6254ft 92kts
06-Jan-18 16:48 35.177186 -120.395728 281 6276ft 89kts
06-Jan-18 16:49 35.181330 -120.413574 290 6266ft 92kts
06-Jan-18 16:50 35.187076 -120.431168 293 6272ft 91kts
06-Jan-18 16:51 35.193212 -120.448436 294 6280ft 90kts
06-Jan-18 16:52 35.199096 -120.464631 290 6308ft 89kts
06-Jan-18 16:53 35.203522 -120.478350 290 6306ft 90kts
06-Jan-18 16:54 35.205812 -120.491222 279 5949ft 92kts
06-Jan-18 16:55 35.208216 -120.504934 282 5451ft 100kts
06-Jan-18 16:56 35.211541 -120.518899 286 5036ft 97kts
06-Jan-18 16:57 35.214727 -120.531979 293 4574ft 101kts
06-Jan-18 16:58 35.219977 -120.544733 298 4065ft 103kts
06-Jan-18 16:59 35.224611 -120.558143 294 3649ft 92kts
06-Jan-18 17:00 35.229353 -120.570284 295 3115ft 104kts
06-Jan-18 17:01 35.233093 -120.582072 289 2800ft 82kts
06-Jan-18 17:02 35.235358 -120.590686 287 2357ft 89kts
06-Jan-18 17:03 35.238571 -120.602861 289 1768ft 98kts
06-Jan-18 17:04 35.238750 -120.612973 254 1241ft 107kts
06-Jan-18 17:05 35.233751 -120.627439 248 525ft 79kts
06-Jan-18 17:06 35.233213 -120.634210 299 258ft 55kts
06-Jan-18 17:07 35.234927 -120.637123 309 202ft 0kts
06-Jan-18 17:08 35.234927 -120.637123 309 202ft 0kts

Navigation Log

Ident Type
Flight plan parsing failed, navigation log unavailable